Time;durP1;ratioP1;P1;durP2;ratioP2;P2;SDS_P1;SDS_P2;PMS_P1;PMS_P2;Temp;Humidity;BMP_temperature;BMP_pressure;BME280_temperature;BME280_humidity;BME280_pressure;Samples;Min_cycle;Max_cycle;Signal;HPM_P1;HPM_P2
2022/06/03 00:01:05;;;;;;;7.15;3.67;;;;;;;;;;4994215;28;20034;-62
2022/06/03 00:03:34;;;;;;;7.45;4.20;;;;;;;;;;5054915;28;20112;-62
2022/06/03 00:06:19;;;;;;;5.93;3.88;;;;;;;;;;5055117;28;20018;-62
2022/06/03 00:08:58;;;;;;;9.10;3.78;;;;;;;;;;5062649;28;20025;-62
2022/06/03 00:11:32;;;;;;;8.38;4.70;;;;;;;;;;5057988;28;20040;-62
2022/06/03 00:14:02;;;;;;;9.13;5.25;;;;;;;;;;5053751;28;20111;-62
2022/06/03 00:16:37;;;;;;;14.77;5.05;;;;;;;;;;5054563;28;20029;-62
2022/06/03 00:19:22;;;;;;;14.43;4.25;;;;;;;;;;5054782;28;20067;-62
2022/06/03 00:22:07;;;;;;;9.65;4.47;;;;;;;;;;5054264;28;20033;-62
2022/06/03 00:24:33;;;;;;;7.05;4.07;;;;;;;;;;5054481;28;20043;-62
2022/06/03 00:27:15;;;;;;;8.73;4.18;;;;;;;;;;5053661;28;20540;-62
2022/06/03 00:30:02;;;;;;;11.00;4.22;;;;;;;;;;5054304;28;20083;-62
2022/06/03 00:32:31;;;;;;;13.55;4.25;;;;;;;;;;5054367;28;20124;-62
2022/06/03 00:35:15;;;;;;;8.57;4.78;;;;;;;;;;5054597;28;20036;-62
2022/06/03 00:37:50;;;;;;;11.32;5.35;;;;;;;;;;5053724;28;20037;-62
2022/06/03 00:40:19;;;;;;;10.43;5.90;;;;;;;;;;5057231;28;20032;-62
2022/06/03 00:42:51;;;;;;;11.25;4.55;;;;;;;;;;5057354;28;20047;-62
2022/06/03 00:45:26;;;;;;;8.90;4.93;;;;;;;;;;5054378;28;20067;-62
2022/06/03 00:48:04;;;;;;;10.27;4.45;;;;;;;;;;5053981;28;21068;-62
2022/06/03 00:50:36;;;;;;;8.55;4.97;;;;;;;;;;5054205;28;20029;-62
2022/06/03 00:53:21;;;;;;;7.50;4.53;;;;;;;;;;5054014;28;20033;-62
2022/06/03 00:56:05;;;;;;;11.60;5.32;;;;;;;;;;5053890;28;20078;-62
2022/06/03 00:58:55;;;;;;;10.50;5.45;;;;;;;;;;5053687;28;20053;-62
2022/06/03 01:01:25;;;;;;;8.85;4.35;;;;;;;;;;5054042;28;20037;-62
2022/06/03 01:03:57;;;;;;;8.63;4.20;;;;;;;;;;5053547;28;20052;-62
2022/06/03 01:06:23;;;;;;;9.73;4.53;;;;;;;;;;5053695;28;20037;-62
2022/06/03 01:09:07;;;;;;;9.48;4.18;;;;;;;;;;5062402;28;20036;-63
2022/06/03 01:11:42;;;;;;;11.15;5.18;;;;;;;;;;5057015;28;20068;-62
2022/06/03 01:14:13;;;;;;;6.90;4.40;;;;;;;;;;5054026;28;20029;-62
2022/06/03 01:16:58;;;;;;;5.70;4.22;;;;;;;;;;5053486;28;20111;-62
2022/06/03 01:19:30;;;;;;;7.68;4.05;;;;;;;;;;5053771;28;20029;-62
2022/06/03 01:21:56;;;;;;;7.85;3.75;;;;;;;;;;5053037;28;20116;-62
2022/06/03 01:24:28;;;;;;;11.45;4.45;;;;;;;;;;5053794;28;20036;-62
2022/06/03 01:27:13;;;;;;;9.90;4.63;;;;;;;;;;5053463;28;20053;-62
2022/06/03 01:29:51;;;;;;;7.40;3.85;;;;;;;;;;5055107;28;20036;-62
2022/06/03 01:32:36;;;;;;;11.18;4.18;;;;;;;;;;5053521;28;20485;-62
2022/06/03 01:35:14;;;;;;;9.18;4.38;;;;;;;;;;5051801;28;20374;-62
2022/06/03 01:37:43;;;;;;;8.93;4.75;;;;;;;;;;5058470;28;20496;-62
2022/06/03 01:40:15;;;;;;;11.23;4.97;;;;;;;;;;5054590;28;20025;-62
2022/06/03 01:42:48;;;;;;;9.75;4.70;;;;;;;;;;5052948;28;20044;-62
2022/06/03 01:45:20;;;;;;;12.60;4.88;;;;;;;;;;5053424;28;20032;-62
2022/06/03 01:47:56;;;;;;;7.20;4.28;;;;;;;;;;5052514;28;20040;-62
2022/06/03 01:50:37;;;;;;;9.07;4.13;;;;;;;;;;5052895;28;20401;-62
2022/06/03 01:53:19;;;;;;;16.13;5.20;;;;;;;;;;5052503;28;20485;-62
2022/06/03 01:55:48;;;;;;;9.55;4.38;;;;;;;;;;5052775;28;20132;-62
2022/06/03 01:58:17;;;;;;;9.63;4.63;;;;;;;;;;5052737;28;20086;-62
2022/06/03 02:01:03;;;;;;;9.55;4.20;;;;;;;;;;5052780;28;20404;-62
2022/06/03 02:03:32;;;;;;;7.55;4.40;;;;;;;;;;5038177;28;20406;-62
2022/06/03 02:05:58;;;;;;;7.22;4.75;;;;;;;;;;5052240;28;20064;-62
2022/06/03 02:08:43;;;;;;;9.98;4.30;;;;;;;;;;5058151;28;20021;-62
2022/06/03 02:11:27;;;;;;;10.98;4.57;;;;;;;;;;5059537;28;20385;-62
2022/06/03 02:13:59;;;;;;;7.85;4.25;;;;;;;;;;5052424;28;20462;-62
2022/06/03 02:16:41;;;;;;;11.23;4.57;;;;;;;;;;5052317;28;20025;-62
2022/06/03 02:19:10;;;;;;;12.68;4.72;;;;;;;;;;5051817;28;20029;-62
2022/06/03 02:21:39;;;;;;;11.95;5.53;;;;;;;;;;5052547;28;20108;-62
2022/06/03 02:24:08;;;;;;;10.25;4.78;;;;;;;;;;5052350;28;20036;-62
2022/06/03 02:26:40;;;;;;;7.60;4.75;;;;;;;;;;5052461;28;20381;-62
2022/06/03 02:32:10;;;;;;;;;;;;;;;;;;5052786;28;20028;-62
2022/06/03 02:34:42;;;;;;;9.50;4.70;;;;;;;;;;5052227;28;20050;-62
2022/06/03 02:37:08;;;;;;;15.02;4.80;;;;;;;;;;5051749;28;20905;-62
2022/06/03 02:39:53;;;;;;;10.77;5.13;;;;;;;;;;5052123;28;20036;-62
2022/06/03 02:42:21;;;;;;;10.35;5.20;;;;;;;;;;5052448;28;20044;-62
2022/06/03 02:44:57;;;;;;;15.25;5.07;;;;;;;;;;5056519;28;20024;-62
2022/06/03 02:47:29;;;;;;;9.10;4.65;;;;;;;;;;5036545;28;20041;-62
2022/06/03 02:50:13;;;;;;;11.13;5.37;;;;;;;;;;5051327;28;20128;-62
2022/06/03 02:52:39;;;;;;;7.50;4.63;;;;;;;;;;5043866;28;20295;-62
2022/06/03 02:55:15;;;;;;;11.07;4.88;;;;;;;;;;5052754;28;20516;-62
2022/06/03 02:58:00;;;;;;;8.90;5.07;;;;;;;;;;5049905;28;20082;-62
2022/06/03 03:00:38;;;;;;;12.15;4.60;;;;;;;;;;5049277;28;20025;-62
2022/06/03 03:03:04;;;;;;;11.43;6.00;;;;;;;;;;5049339;28;20024;-62
2022/06/03 03:05:38;;;;;;;9.73;5.97;;;;;;;;;;5050266;28;20033;-62
2022/06/03 03:08:07;;;;;;;10.90;5.90;;;;;;;;;;5049439;28;20029;-62
2022/06/03 03:10:42;;;;;;;10.77;5.65;;;;;;;;;;5046433;28;20079;-62
2022/06/03 03:13:27;;;;;;;9.32;4.88;;;;;;;;;;5050736;28;20041;-62
2022/06/03 03:16:08;;;;;;;12.23;5.40;;;;;;;;;;5052394;28;20025;-62
2022/06/03 03:18:43;;;;;;;14.90;6.15;;;;;;;;;;5045006;28;20039;-62
2022/06/03 03:21:28;;;;;;;12.02;5.82;;;;;;;;;;5054471;28;20039;-62
2022/06/03 03:23:57;;;;;;;10.82;5.70;;;;;;;;;;5051229;28;20393;-62
2022/06/03 03:26:32;;;;;;;22.08;5.55;;;;;;;;;;5050652;28;20040;-62
2022/06/03 03:29:10;;;;;;;9.45;5.43;;;;;;;;;;5049992;28;20214;-62
2022/06/03 03:31:37;;;;;;;12.82;5.50;;;;;;;;;;5044994;28;20037;-62
2022/06/03 03:34:27;;;;;;;14.35;5.40;;;;;;;;;;5044597;28;20025;-62
2022/06/03 03:37:05;;;;;;;13.77;6.25;;;;;;;;;;5048219;28;20060;-62
2022/06/03 03:39:34;;;;;;;11.27;4.97;;;;;;;;;;5051109;28;20036;-62
2022/06/03 03:42:16;;;;;;;11.60;6.00;;;;;;;;;;5050383;28;20021;-62
2022/06/03 03:44:48;;;;;;;14.93;5.72;;;;;;;;;;5051272;28;20440;-62
2022/06/03 03:47:26;;;;;;;19.50;6.88;;;;;;;;;;5049768;28;20025;-62
2022/06/03 03:49:58;;;;;;;9.90;6.65;;;;;;;;;;5050262;28;20112;-62
2022/06/03 03:52:24;;;;;;;13.43;8.00;;;;;;;;;;5049435;28;20028;-62
2022/06/03 03:54:56;;;;;;;18.42;6.78;;;;;;;;;;5049948;28;20059;-62
2022/06/03 03:57:37;;;;;;;10.43;6.13;;;;;;;;;;5049291;28;20029;-62
2022/06/03 04:00:06;;;;;;;8.23;5.30;;;;;;;;;;5048388;28;20334;-62
2022/06/03 04:02:48;;;;;;;12.20;5.80;;;;;;;;;;5053714;28;20029;-62
2022/06/03 04:05:14;;;;;;;13.52;6.68;;;;;;;;;;5053037;28;20059;-62
2022/06/03 04:07:52;;;;;;;10.90;5.65;;;;;;;;;;5053308;28;20017;-62
2022/06/03 04:10:18;;;;;;;15.15;6.13;;;;;;;;;;5051971;28;20432;-62
2022/06/03 04:12:44;;;;;;;11.98;5.80;;;;;;;;;;5053365;28;20021;-62
2022/06/03 04:15:29;;;;;;;10.48;5.60;;;;;;;;;;5052455;28;20049;-62
2022/06/03 04:17:57;;;;;;;9.98;5.60;;;;;;;;;;5050294;28;20028;-62
2022/06/03 04:20:33;;;;;;;14.13;5.85;;;;;;;;;;5052928;28;20029;-62
2022/06/03 04:23:11;;;;;;;11.18;6.15;;;;;;;;;;5058116;28;20036;-62
2022/06/03 04:25:56;;;;;;;12.70;6.55;;;;;;;;;;5054654;28;20485;-62
2022/06/03 04:28:40;;;;;;;8.73;5.80;;;;;;;;;;5058139;28;20061;-62
2022/06/03 04:31:25;;;;;;;10.77;5.90;;;;;;;;;;5052833;28;20052;-62
2022/06/03 04:34:06;;;;;;;16.05;6.95;;;;;;;;;;5044007;28;20040;-62
2022/06/03 04:36:51;;;;;;;13.82;7.13;;;;;;;;;;5054639;28;20083;-62
2022/06/03 04:39:37;;;;;;;11.85;6.13;;;;;;;;;;5054074;28;20385;-62
2022/06/03 04:42:03;;;;;;;19.25;8.00;;;;;;;;;;5054349;28;20029;-62
2022/06/03 04:44:47;;;;;;;18.10;6.90;;;;;;;;;;5053762;28;20103;-62
2022/06/03 04:47:25;;;;;;;17.42;7.05;;;;;;;;;;5046139;28;20028;-62
2022/06/03 04:50:10;;;;;;;16.77;7.65;;;;;;;;;;5035121;28;20017;-62
2022/06/03 04:52:36;;;;;;;18.73;7.65;;;;;;;;;;5047524;28;20033;-62
2022/06/03 04:55:21;;;;;;;19.83;8.23;;;;;;;;;;5053888;28;20040;-62
2022/06/03 04:57:50;;;;;;;17.75;7.15;;;;;;;;;;5037730;28;20021;-62
2022/06/03 05:00:21;;;;;;;20.23;7.45;;;;;;;;;;5054090;28;20025;-62
2022/06/03 05:03:03;;;;;;;16.60;7.15;;;;;;;;;;5054023;28;20090;-62
2022/06/03 05:05:47;;;;;;;17.17;7.45;;;;;;;;;;5045331;28;20099;-62
2022/06/03 05:08:32;;;;;;;17.17;8.25;;;;;;;;;;5047502;28;20020;-63
2022/06/03 05:11:01;;;;;;;21.13;9.30;;;;;;;;;;5047057;28;20036;-63
2022/06/03 05:13:46;;;;;;;18.50;9.60;;;;;;;;;;5040110;28;20036;-62
2022/06/03 05:16:30;;;;;;;25.17;8.52;;;;;;;;;;5051450;28;20136;-62
2022/06/03 05:18:56;;;;;;;10.95;6.53;;;;;;;;;;5042795;28;20028;-62
2022/06/03 05:21:41;;;;;;;18.73;6.35;;;;;;;;;;5045825;28;20407;-62
2022/06/03 05:24:19;;;;;;;17.17;6.63;;;;;;;;;;5042746;28;20508;-62
2022/06/03 05:26:57;;;;;;;19.05;7.10;;;;;;;;;;5044899;28;20405;-62
2022/06/03 05:29:32;;;;;;;24.20;7.72;;;;;;;;;;5046538;28;20064;-63
2022/06/03 05:32:20;;;;;;;19.63;8.02;;;;;;;;;;5041992;28;20033;-63
2022/06/03 05:35:09;;;;;;;24.70;9.40;;;;;;;;;;5046686;28;20033;-62
2022/06/03 05:37:38;;;;;;;26.33;8.50;;;;;;;;;;5046293;28;20036;-62
2022/06/03 05:40:17;;;;;;;19.73;8.20;;;;;;;;;;5047496;28;20036;-62
2022/06/03 05:43:08;;;;;;;24.15;8.50;;;;;;;;;;5047870;28;20064;-62
2022/06/03 05:45:43;;;;;;;18.75;8.05;;;;;;;;;;5037264;28;20112;-63
2022/06/03 05:48:09;;;;;;;25.30;8.20;;;;;;;;;;5040248;28;20059;-63
2022/06/03 05:50:35;;;;;;;20.00;7.78;;;;;;;;;;5037633;28;20083;-63
2022/06/03 05:53:16;;;;;;;13.98;7.00;;;;;;;;;;5035835;28;20053;-63
2022/06/03 05:56:21;;;;;;;28.70;8.23;;;;;;;;;;5039050;28;20025;-63
2022/06/03 05:58:47;;;;;;;17.65;6.57;;;;;;;;;;4975532;28;20405;-63
2022/06/03 06:01:13;;;;;;;19.27;7.13;;;;;;;;;;4985991;28;20089;-63
2022/06/03 06:03:49;;;;;;;27.13;8.27;;;;;;;;;;4980728;28;20105;-63
2022/06/03 06:06:44;;;;;;;16.92;7.60;;;;;;;;;;4986545;28;20499;-63
2022/06/03 06:09:16;;;;;;;13.32;6.47;;;;;;;;;;4974521;28;20034;-64
2022/06/03 06:11:54;;;;;;;23.40;6.77;;;;;;;;;;4980991;28;20080;-64
2022/06/03 06:14:33;;;;;;;17.15;6.50;;;;;;;;;;4973394;28;20121;-64
2022/06/03 06:17:29;;;;;;;15.30;6.63;;;;;;;;;;4983462;28;20080;-64
2022/06/03 06:19:58;;;;;;;14.88;7.38;;;;;;;;;;4983103;28;20379;-64
2022/06/03 06:22:30;;;;;;;14.13;6.43;;;;;;;;;;4978544;28;20046;-64
2022/06/03 06:25:10;;;;;;;13.30;7.00;;;;;;;;;;4975648;28;20388;-63
2022/06/03 06:27:51;;;;;;;12.05;6.13;;;;;;;;;;4978232;28;20035;-64
2022/06/03 06:30:26;;;;;;;15.77;6.25;;;;;;;;;;5029220;28;20107;-64
2022/06/03 06:33:11;;;;;;;13.63;6.43;;;;;;;;;;5043437;28;20044;-64
2022/06/03 06:36:00;;;;;;;19.65;7.28;;;;;;;;;;5045825;28;20500;-64
2022/06/03 06:38:45;;;;;;;12.80;6.47;;;;;;;;;;5036891;28;20029;-64
2022/06/03 06:41:26;;;;;;;20.48;7.85;;;;;;;;;;5037747;28;20485;-64
2022/06/03 06:44:11;;;;;;;18.70;7.32;;;;;;;;;;5037070;28;20029;-63
2022/06/03 06:46:56;;;;;;;18.35;6.22;;;;;;;;;;5048059;28;20037;-63
2022/06/03 06:49:22;;;;;;;15.88;6.95;;;;;;;;;;5044034;28;20064;-64
2022/06/03 06:52:03;;;;;;;16.17;5.90;;;;;;;;;;5037713;28;20029;-64
2022/06/03 06:54:41;;;;;;;15.50;6.70;;;;;;;;;;5045180;28;20028;-63
2022/06/03 06:57:27;;;;;;;16.38;7.00;;;;;;;;;;5043837;28;20025;-63
2022/06/03 07:00:07;;;;;;;14.65;6.38;;;;;;;;;;5041560;28;20055;-63
2022/06/03 07:02:44;;;;;;;15.48;6.03;;;;;;;;;;5042421;28;20398;-64
2022/06/03 07:05:18;;;;;;;15.30;7.57;;;;;;;;;;5043073;28;20024;-63
2022/06/03 07:07:51;;;;;;;15.32;6.30;;;;;;;;;;5048258;28;20383;-64
2022/06/03 07:10:23;;;;;;;12.82;6.00;;;;;;;;;;5041824;28;20033;-64
2022/06/03 07:12:58;;;;;;;10.30;6.63;;;;;;;;;;5045387;28;20058;-64
2022/06/03 07:15:43;;;;;;;15.00;6.93;;;;;;;;;;5041107;28;20060;-64
2022/06/03 07:21:03;;;;;;;17.38;6.05;;;;;;;;;;5046127;28;20032;-63
2022/06/03 07:23:38;;;;;;;17.55;6.63;;;;;;;;;;5043650;28;20029;-63
2022/06/03 07:26:15;;;;;;;17.98;6.88;;;;;;;;;;5042082;28;20508;-63
2022/06/03 07:28:51;;;;;;;20.48;8.02;;;;;;;;;;5042567;28;20040;-63
2022/06/03 07:31:36;;;;;;;17.38;6.93;;;;;;;;;;5042428;28;20111;-64
2022/06/03 07:34:04;;;;;;;20.58;6.70;;;;;;;;;;5043969;28;20036;-63
2022/06/03 07:36:40;;;;;;;21.83;7.00;;;;;;;;;;5047133;28;20485;-63
2022/06/03 07:39:43;;;;;;;14.48;6.82;;;;;;;;;;5051248;28;20056;-64
2022/06/03 07:42:18;;;;;;;18.95;6.32;;;;;;;;;;4985257;28;20554;-64
2022/06/03 07:44:47;;;;;;;14.15;6.05;;;;;;;;;;4985864;28;20094;-64
2022/06/03 07:47:15;;;;;;;22.23;6.82;;;;;;;;;;4985626;28;20026;-63
2022/06/03 07:49:49;;;;;;;16.77;6.80;;;;;;;;;;4986053;28;20042;-63
2022/06/03 07:52:42;;;;;;;22.38;6.90;;;;;;;;;;4983836;28;20715;-63
2022/06/03 07:55:11;;;;;;;20.23;6.57;;;;;;;;;;4982146;28;20058;-63
2022/06/03 07:57:37;;;;;;;17.70;6.68;;;;;;;;;;4985181;28;20042;-63
2022/06/03 08:00:05;;;;;;;19.73;7.00;;;;;;;;;;4979046;28;20512;-63
2022/06/03 08:02:31;;;;;;;18.02;7.15;;;;;;;;;;4985676;28;20102;-63
2022/06/03 08:05:06;;;;;;;23.75;6.93;;;;;;;;;;4985891;28;20503;-63
2022/06/03 08:13:11;;;;;;;24.23;7.50;;;;;;;;;;4989119;28;20037;-63
2022/06/03 08:15:39;;;;;;;25.45;7.28;;;;;;;;;;5002334;28;20516;-63
2022/06/03 08:18:07;;;;;;;26.42;8.45;;;;;;;;;;5051886;28;20116;-63
2022/06/03 08:20:49;;;;;;;18.02;7.40;;;;;;;;;;5048750;28;20079;-63
2022/06/03 08:23:16;;;;;;;23.58;7.45;;;;;;;;;;5043015;28;20400;-63
2022/06/03 08:25:43;;;;;;;26.67;7.55;;;;;;;;;;5047628;28;20028;-63
2022/06/03 08:28:12;;;;;;;22.50;7.00;;;;;;;;;;5050362;28;20025;-63
2022/06/03 08:30:39;;;;;;;24.10;7.40;;;;;;;;;;5050883;28;20437;-63
2022/06/03 08:33:07;;;;;;;23.15;6.78;;;;;;;;;;5048823;28;20030;-63
2022/06/03 08:35:36;;;;;;;23.27;8.55;;;;;;;;;;5051352;28;20100;-63
2022/06/03 08:38:09;;;;;;;15.07;6.68;;;;;;;;;;5044917;28;20115;-63
2022/06/03 08:40:35;;;;;;;17.08;6.35;;;;;;;;;;5048011;28;20071;-63
2022/06/03 08:43:07;;;;;;;22.65;6.40;;;;;;;;;;5043127;28;20040;-63
2022/06/03 08:45:49;;;;;;;20.85;6.22;;;;;;;;;;5051067;28;20032;-63
2022/06/03 08:48:16;;;;;;;13.65;5.30;;;;;;;;;;5040966;28;20040;-63
2022/06/03 08:50:48;;;;;;;24.83;6.30;;;;;;;;;;5050782;28;20037;-63
2022/06/03 08:53:14;;;;;;;20.83;5.47;;;;;;;;;;5047130;28;20021;-63
2022/06/03 08:55:53;;;;;;;19.73;6.10;;;;;;;;;;5046989;28;20074;-63
2022/06/03 08:58:24;;;;;;;17.42;6.43;;;;;;;;;;5044726;28;20110;-63
2022/06/03 09:00:56;;;;;;;13.95;6.05;;;;;;;;;;5047410;28;20029;-63
2022/06/03 09:03:24;;;;;;;11.77;5.30;;;;;;;;;;5050131;28;20029;-63
2022/06/03 09:06:06;;;;;;;18.98;5.70;;;;;;;;;;5050096;28;20017;-63
2022/06/03 09:08:33;;;;;;;;;;;;;;;;;;5044716;28;20029;-63
2022/06/03 09:11:04;;;;;;;16.27;5.65;;;;;;;;;;5042440;28;20269;-63
2022/06/03 09:13:30;;;;;;;19.83;6.13;;;;;;;;;;5045977;28;20028;-63
2022/06/03 09:15:56;;;;;;;16.95;5.20;;;;;;;;;;5047012;28;20029;-63
2022/06/03 09:18:25;;;;;;;12.82;5.30;;;;;;;;;;5038939;28;20500;-63
2022/06/03 09:20:54;;;;;;;13.63;4.68;;;;;;;;;;5065939;28;20025;-63
2022/06/03 09:23:22;;;;;;;22.30;6.15;;;;;;;;;;5045007;28;20021;-63
2022/06/03 09:25:50;;;;;;;16.75;6.15;;;;;;;;;;5041216;28;20048;-63
2022/06/03 09:28:20;;;;;;;13.85;5.18;;;;;;;;;;5042066;28;20036;-63
2022/06/03 09:30:47;;;;;;;20.70;5.15;;;;;;;;;;5044767;28;20040;-63
2022/06/03 09:33:15;;;;;;;21.33;5.00;;;;;;;;;;5044642;28;20497;-63
2022/06/03 09:35:43;;;;;;;19.42;5.78;;;;;;;;;;5037052;28;20053;-63
2022/06/03 09:38:11;;;;;;;16.70;5.50;;;;;;;;;;5044102;28;20122;-63
2022/06/03 09:40:40;;;;;;;17.40;6.53;;;;;;;;;;5041764;28;20032;-65
2022/06/03 09:43:06;;;;;;;17.55;5.97;;;;;;;;;;5044948;28;20029;-65
2022/06/03 09:45:34;;;;;;;13.20;5.72;;;;;;;;;;5048984;28;20087;-65
2022/06/03 09:48:01;;;;;;;19.77;5.78;;;;;;;;;;5037974;28;20584;-66
2022/06/03 09:50:27;;;;;;;20.17;5.30;;;;;;;;;;5045490;28;20036;-65
2022/06/03 09:53:01;;;;;;;18.02;4.82;;;;;;;;;;5041972;28;20045;-65
2022/06/03 09:55:30;;;;;;;19.52;5.10;;;;;;;;;;5042275;28;20021;-65
2022/06/03 09:57:58;;;;;;;24.85;5.30;;;;;;;;;;5044634;28;20049;-66
2022/06/03 10:00:42;;;;;;;18.30;4.43;;;;;;;;;;5043508;28;20041;-66
2022/06/03 10:03:08;;;;;;;14.63;4.55;;;;;;;;;;5045214;28;20028;-66
2022/06/03 10:05:34;;;;;;;15.88;5.78;;;;;;;;;;5048088;28;20025;-66
2022/06/03 10:08:03;;;;;;;16.83;5.22;;;;;;;;;;5049081;28;20778;-66
2022/06/03 10:13:15;;;;;;;11.95;3.95;;;;;;;;;;5043108;28;20036;-66
2022/06/03 10:15:53;;;;;;;14.52;4.57;;;;;;;;;;5038839;28;20033;-65
2022/06/03 10:18:28;;;;;;;12.25;4.13;;;;;;;;;;5045972;28;20036;-65
2022/06/03 10:21:14;;;;;;;13.20;3.47;;;;;;;;;;5038278;28;20059;-65
2022/06/03 10:23:48;;;;;;;14.10;3.80;;;;;;;;;;5036607;28;20068;-65
2022/06/03 10:26:20;;;;;;;12.27;3.60;;;;;;;;;;5043424;28;20095;-65
2022/06/03 10:28:49;;;;;;;15.30;3.83;;;;;;;;;;5037777;28;20214;-65
2022/06/03 10:31:16;;;;;;;9.98;3.53;;;;;;;;;;5045288;28;20097;-65
2022/06/03 10:33:52;;;;;;;9.15;2.90;;;;;;;;;;5043433;28;20028;-65
2022/06/03 10:36:18;;;;;;;6.63;2.80;;;;;;;;;;5041873;28;20116;-65
2022/06/03 10:38:48;;;;;;;6.30;2.90;;;;;;;;;;5042506;28;20120;-66
2022/06/03 10:41:14;;;;;;;9.98;2.70;;;;;;;;;;5046722;28;20028;-66
2022/06/03 10:43:41;;;;;;;7.30;2.90;;;;;;;;;;5046214;28;20049;-66
2022/06/03 10:46:13;;;;;;;14.80;3.17;;;;;;;;;;5042626;28;20036;-66
2022/06/03 10:48:39;;;;;;;11.07;3.22;;;;;;;;;;5044843;28;20089;-66
2022/06/03 11:02:37;;;;;;;7.32;2.47;;;;;;;;;;5045643;28;20032;-66
2022/06/03 11:05:15;;;;;;;8.27;3.20;;;;;;;;;;5037918;28;20044;-66
2022/06/03 11:07:41;;;;;;;10.35;3.63;;;;;;;;;;5042461;28;20020;-66
2022/06/03 11:10:10;;;;;;;8.32;3.53;;;;;;;;;;5048261;28;20018;-66
2022/06/03 11:12:36;;;;;;;9.48;3.13;;;;;;;;;;5044281;28;20381;-66
2022/06/03 11:15:22;;;;;;;7.70;4.07;;;;;;;;;;5038335;28;20040;-66
2022/06/03 11:17:48;;;;;;;9.95;4.32;;;;;;;;;;5040376;28;20047;-66
2022/06/03 11:20:34;;;;;;;16.08;4.85;;;;;;;;;;5044728;28;20108;-66
2022/06/03 11:23:03;;;;;;;9.98;3.78;;;;;;;;;;5039895;28;20021;-66
2022/06/03 11:25:30;;;;;;;14.05;5.28;;;;;;;;;;5042267;28;20497;-66
2022/06/03 11:27:56;;;;;;;9.52;4.25;;;;;;;;;;5038625;28;20013;-66
2022/06/03 11:30:43;;;;;;;15.57;5.75;;;;;;;;;;5046389;28;20044;-66
2022/06/03 11:33:30;;;;;;;11.75;4.63;;;;;;;;;;5048777;28;20029;-66
2022/06/03 11:36:19;;;;;;;12.43;4.85;;;;;;;;;;5044190;28;20028;-66
2022/06/03 11:38:51;;;;;;;12.40;4.60;;;;;;;;;;5041846;28;20048;-66
2022/06/03 11:41:20;;;;;;;10.68;4.15;;;;;;;;;;5040066;28;20060;-66
2022/06/03 11:43:50;;;;;;;10.98;5.05;;;;;;;;;;5040546;28;20452;-66
2022/06/03 11:46:19;;;;;;;11.80;4.97;;;;;;;;;;5069479;28;20551;-66
2022/06/03 11:48:49;;;;;;;16.02;5.50;;;;;;;;;;5041257;28;20095;-66
2022/06/03 11:51:16;;;;;;;10.75;4.38;;;;;;;;;;5037363;28;20425;-66
2022/06/03 11:53:50;;;;;;;8.95;4.20;;;;;;;;;;5046936;28;20039;-66
2022/06/03 11:56:18;;;;;;;14.73;4.43;;;;;;;;;;5038564;28;20480;-66
2022/06/03 11:58:47;;;;;;;11.15;4.80;;;;;;;;;;5043667;28;20037;-66
2022/06/03 12:01:27;;;;;;;17.33;5.85;;;;;;;;;;5042395;28;20447;-66
2022/06/03 12:03:59;;;;;;;17.33;5.50;;;;;;;;;;5036894;28;20021;-66
2022/06/03 12:06:30;;;;;;;16.50;5.28;;;;;;;;;;5045169;28;20151;-66
2022/06/03 12:09:00;;;;;;;19.00;5.70;;;;;;;;;;5040893;28;20474;-66
2022/06/03 12:14:12;;;;;;;20.63;5.85;;;;;;;;;;5043797;28;20033;-66
2022/06/03 12:16:58;;;;;;;16.33;6.03;;;;;;;;;;5044544;28;20033;-66
2022/06/03 12:19:43;;;;;;;13.07;5.20;;;;;;;;;;5040957;28;20033;-65
2022/06/03 12:22:18;;;;;;;13.80;4.95;;;;;;;;;;5044869;28;20079;-64
2022/06/03 12:24:45;;;;;;;12.57;4.22;;;;;;;;;;5049611;28;20029;-63
2022/06/03 12:27:14;;;;;;;15.55;5.13;;;;;;;;;;5049919;28;20115;-64
2022/06/03 12:29:45;;;;;;;12.43;5.30;;;;;;;;;;5045486;28;20021;-64
2022/06/03 12:32:24;;;;;;;12.07;4.43;;;;;;;;;;5051956;28;20035;-64
2022/06/03 12:34:50;;;;;;;17.30;4.97;;;;;;;;;;5044953;28;20060;-64
2022/06/03 12:37:24;;;;;;;10.82;5.40;;;;;;;;;;5044552;28;20045;-64
2022/06/03 12:39:50;;;;;;;18.42;4.90;;;;;;;;;;5042530;28;20021;-63
2022/06/03 12:42:40;;;;;;;17.10;5.80;;;;;;;;;;5040296;28;20028;-63
2022/06/03 12:45:12;;;;;;;15.57;6.45;;;;;;;;;;5055990;28;20485;-64
2022/06/03 12:47:43;;;;;;;17.98;5.97;;;;;;;;;;5054915;28;20410;-63
2022/06/03 12:50:09;;;;;;;27.17;7.78;;;;;;;;;;5047333;28;21218;-63
2022/06/03 12:52:37;;;;;;;17.90;6.38;;;;;;;;;;5044607;28;20028;-64
2022/06/03 12:55:17;;;;;;;18.88;5.72;;;;;;;;;;5047388;28;20440;-64
2022/06/03 12:57:43;;;;;;;18.85;6.18;;;;;;;;;;5040327;28;20052;-63
2022/06/03 13:00:16;;;;;;;17.08;6.25;;;;;;;;;;5050083;28;20028;-63
2022/06/03 13:02:49;;;;;;;17.08;6.07;;;;;;;;;;5047000;28;20633;-63
2022/06/03 13:05:27;;;;;;;17.90;6.70;;;;;;;;;;5041047;28;20025;-63
2022/06/03 13:08:05;;;;;;;14.27;5.85;;;;;;;;;;5049149;28;20083;-63
2022/06/03 13:10:51;;;;;;;22.05;5.90;;;;;;;;;;5038672;28;20029;-63
2022/06/03 13:13:24;;;;;;;20.98;6.15;;;;;;;;;;5048452;28;20799;-63
2022/06/03 13:15:51;;;;;;;18.50;5.68;;;;;;;;;;5044333;28;20041;-63
2022/06/03 13:18:37;;;;;;;17.35;5.47;;;;;;;;;;5046201;28;20489;-63
2022/06/03 13:21:03;;;;;;;21.15;6.32;;;;;;;;;;5049879;28;20416;-63
2022/06/03 13:23:29;;;;;;;29.60;6.10;;;;;;;;;;5050946;28;20396;-63
2022/06/03 13:26:15;;;;;;;27.42;6.75;;;;;;;;;;5042889;28;20037;-63
2022/06/03 13:28:43;;;;;;;15.35;5.90;;;;;;;;;;5044033;28;20029;-63
2022/06/03 13:31:48;;;;;;;17.10;6.05;;;;;;;;;;5044271;28;20025;-63
2022/06/03 13:34:16;;;;;;;18.48;5.50;;;;;;;;;;5006604;28;20080;-63
2022/06/03 13:36:47;;;;;;;13.35;5.10;;;;;;;;;;5008888;28;20037;-63
2022/06/03 13:39:34;;;;;;;17.52;5.55;;;;;;;;;;5007865;28;20537;-63
2022/06/03 13:44:53;;;;;;;18.75;7.25;;;;;;;;;;5004587;28;20410;-63
2022/06/03 13:47:19;;;;;;;17.17;5.90;;;;;;;;;;5009309;28;20044;-63
2022/06/03 13:49:48;;;;;;;29.65;6.68;;;;;;;;;;5009735;28;20042;-63
2022/06/03 13:52:20;;;;;;;20.38;6.00;;;;;;;;;;5008528;28;20050;-63
2022/06/03 13:54:52;;;;;;;20.03;6.63;;;;;;;;;;5000914;28;20042;-63
2022/06/03 13:57:21;;;;;;;24.40;7.20;;;;;;;;;;5008806;28;20338;-64
2022/06/03 13:59:48;;;;;;;18.70;5.95;;;;;;;;;;5005841;28;20138;-63
2022/06/03 14:02:35;;;;;;;22.45;7.07;;;;;;;;;;5007778;28;20122;-63
2022/06/03 14:05:04;;;;;;;18.13;6.28;;;;;;;;;;5031899;28;20405;-64
2022/06/03 14:07:41;;;;;;;20.13;6.65;;;;;;;;;;5047039;28;20029;-64
2022/06/03 14:10:12;;;;;;;19.20;6.32;;;;;;;;;;5047049;28;20067;-64
2022/06/03 14:12:44;;;;;;;16.98;6.57;;;;;;;;;;5042015;28;20028;-63
2022/06/03 14:15:37;;;;;;;17.08;6.18;;;;;;;;;;5049588;28;20517;-63
2022/06/03 14:18:03;;;;;;;19.90;6.28;;;;;;;;;;5044714;28;20136;-63
2022/06/03 14:20:35;;;;;;;25.45;6.40;;;;;;;;;;5045398;28;20090;-63
2022/06/03 14:23:10;;;;;;;23.10;6.65;;;;;;;;;;5049524;28;20033;-63
2022/06/03 14:25:52;;;;;;;27.75;5.80;;;;;;;;;;5044895;28;20029;-64
2022/06/03 14:28:34;;;;;;;20.23;5.38;;;;;;;;;;5047088;28;20024;-63
2022/06/03 14:31:01;;;;;;;23.48;6.10;;;;;;;;;;5048445;28;20474;-63
2022/06/03 14:33:30;;;;;;;25.13;5.63;;;;;;;;;;5045002;28;20013;-63
2022/06/03 14:36:00;;;;;;;23.83;6.65;;;;;;;;;;5049491;28;20456;-63
2022/06/03 14:38:32;;;;;;;19.35;6.05;;;;;;;;;;5045862;28;20032;-63
2022/06/03 14:40:59;;;;;;;22.97;5.97;;;;;;;;;;5049675;28;20511;-63
2022/06/03 14:43:26;;;;;;;17.05;6.22;;;;;;;;;;5049204;28;20322;-63
2022/06/03 14:45:54;;;;;;;20.83;6.28;;;;;;;;;;5047592;28;20024;-63
2022/06/03 14:48:35;;;;;;;29.98;6.07;;;;;;;;;;5045519;28;20476;-63
2022/06/03 14:51:07;;;;;;;21.77;6.10;;;;;;;;;;5044862;28;20520;-63
2022/06/03 14:53:59;;;;;;;21.15;7.22;;;;;;;;;;5044099;28;20376;-63
2022/06/03 14:56:31;;;;;;;18.93;5.90;;;;;;;;;;5040243;28;20794;-63
2022/06/03 14:58:59;;;;;;;15.55;6.85;;;;;;;;;;5043750;28;20601;-64
2022/06/03 15:01:47;;;;;;;15.68;5.50;;;;;;;;;;5045907;28;20039;-63
2022/06/03 15:04:21;;;;;;;18.13;5.63;;;;;;;;;;5044660;28;20236;-63
2022/06/03 15:06:51;;;;;;;26.48;6.57;;;;;;;;;;5042106;28;20360;-63
2022/06/03 15:09:17;;;;;;;19.00;5.68;;;;;;;;;;5045913;28;21114;-63
2022/06/03 15:11:50;;;;;;;17.77;5.93;;;;;;;;;;5044710;28;20155;-63
2022/06/03 15:14:21;;;;;;;19.38;6.25;;;;;;;;;;5048759;28;20037;-63
2022/06/03 15:16:51;;;;;;;24.55;6.60;;;;;;;;;;5048962;28;20029;-63
2022/06/03 15:19:36;;;;;;;19.30;6.25;;;;;;;;;;5069677;28;20057;-63
2022/06/03 15:22:05;;;;;;;15.57;5.57;;;;;;;;;;5043786;28;20517;-63
2022/06/03 15:24:31;;;;;;;22.52;6.57;;;;;;;;;;5045029;28;20029;-63
2022/06/03 15:26:58;;;;;;;20.25;6.75;;;;;;;;;;5044557;28;20056;-63
2022/06/03 15:29:27;;;;;;;23.95;5.63;;;;;;;;;;5041904;28;20443;-63
2022/06/03 15:31:54;;;;;;;20.60;6.13;;;;;;;;;;5045903;28;20037;-63
2022/06/03 15:34:21;;;;;;;23.10;6.53;;;;;;;;;;5047254;28;20092;-63
2022/06/03 15:36:48;;;;;;;22.73;7.40;;;;;;;;;;5046412;28;20025;-63
2022/06/03 15:39:26;;;;;;;25.80;7.57;;;;;;;;;;5047713;28;20027;-63
2022/06/03 15:41:54;;;;;;;20.85;7.13;;;;;;;;;;5045655;28;20025;-63
2022/06/03 15:44:37;;;;;;;18.60;7.65;;;;;;;;;;5047028;28;20020;-63
2022/06/03 15:47:03;;;;;;;27.42;7.03;;;;;;;;;;5043883;28;20543;-63